Home > Products > Valid Products > TAF

000
FTUS41 KAKQ 281100
TAFORF
TAF
KORF 281120Z 2812/2912 36015G24KT P6SM SKC
     FM282300 36009KT P6SM SKC
     FM291000 01005KT P6SM SCT250=



000
FTUS41 KAKQ 281100
TAFECG
TAF
KECG 281120Z 2812/2912 34014G21KT P6SM SKC
     FM282200 33007KT P6SM SKC
     FM291000 33004KT P6SM SCT250=



000
FTUS41 KAKQ 281100
TAFPHF
TAF
KPHF 281120Z 2812/2912 35011G18KT P6SM SKC
     FM281300 35014G21KT P6SM SKC
     FM282200 35006KT P6SM SKC
     FM291000 01003KT P6SM SCT250=



000
FTUS41 KAKQ 281100
TAFSBY
TAF
KSBY 281120Z 2812/2912 32012G20KT P6SM SKC
     FM281400 33015G22KT P6SM SKC
     FM282200 33007KT P6SM SKC
     FM290900 01003KT P6SM SCT250=



000
FTUS41 KAKQ 281100
TAFRIC
TAF
KRIC 281120Z 2812/2912 35012KT P6SM SKC
     FM281500 34012G18KT P6SM SKC
     FM282100 36006KT P6SM SKC
     FM290900 00000KT P6SM BKN250=



000
FTUS41 KAKQ 280800 AAA
TAFSBY
TAF AMD
KSBY 280840Z 2809/2906 34012G20KT P6SM SKC
     FM281400 32015G22KT P6SM SKC
     FM282200 33007KT P6SM SKC=



000
FTUS41 KAKQ 280500 RRA
TAFECG
TAF
KECG 280542Z 2806/2906 33011KT P6SM BKN100
     FM281500 34014G21KT P6SM SKC
     FM282200 33007KT P6SM SKC=



000
FTUS41 KAKQ 280500 RRA
TAFORF
TAF
KORF 280542Z 2806/2906 33009G15KT P6SM BKN100
     FM280900 36014G22KT P6SM SKC
     FM282300 36009KT P6SM SKC=



000
FTUS41 KAKQ 280500 RRA
TAFSBY
TAF
KSBY 280542Z 2806/2906 31009KT P6SM SKC
     FM281400 32015G22KT P6SM SKC
     FM282200 33007KT P6SM SKC=



000
FTUS41 KAKQ 280500 RRA
TAFPHF
TAF
KPHF 280542Z 2806/2906 34009KT P6SM BKN100
     FM280900 34009KT P6SM SKC
     FM281300 35014G21KT P6SM SKC
     FM282200 35006KT P6SM SKC=



000
FTUS41 KAKQ 280500 RRA
TAFRIC
TAF
KRIC 280542Z 2806/2906 35009KT P6SM BKN070
     FM280900 35009KT P6SM SKC
     FM281600 34012G18KT P6SM SKC
     FM282100 36006KT P6SM SKC=



000
FTUS41 KAKQ 280100 AAA
TAFECG
TAF AMD
KECG 280110Z 2801/2824 30011KT P6SM BKN100
     FM281000 33013G20KT P6SM SKC
     FM282000 33010KT P6SM SKC=



000
FTUS41 KAKQ 272300
TAFSBY
TAF
KSBY 272340Z 2800/2824 30010G15KT P6SM FEW050
     FM280600 32013G19KT P6SM SKC
     FM282200 31010KT P6SM SKC=



000
FTUS41 KAKQ 272300
TAFRIC
TAF
KRIC 272340Z 2800/2824 33010KT P6SM FEW050 BKN100
     FM280800 35011KT P6SM SKC
     FM281300 34010G16KT P6SM SKC
     FM282000 34007KT P6SM SKC=



000
FTUS41 KAKQ 272300
TAFPHF
TAF
KPHF 272340Z 2800/2824 33009KT P6SM BKN080
     FM280300 33011KT P6SM BKN040
     FM280800 34010G18KT P6SM SKC
     FM282000 34010KT P6SM SKC=



000
FTUS41 KAKQ 272300
TAFECG
TAF
KECG 272340Z 2800/2824 30011KT P6SM BKN025 OVC100
     FM280200 32010KT P6SM BKN060
     FM281000 33013G20KT P6SM SKC
     FM282000 33010KT P6SM SKC=



000
FTUS41 KAKQ 272300
TAFORF
TAF
KORF 272340Z 2800/2824 31009KT P6SM FEW050 BKN080
     FM280400 34012KT P6SM FEW100
     FM280800 35013G20KT P6SM SKC
     FM282100 35010KT P6SM SKC=



000
FTUS41 KAKQ 272100 AAA
TAFSBY
TAF AMD
KSBY 272105Z 2721/2818 30012G17KT P6SM FEW025
     FM280200 32012G19KT P6SM BKN040
     FM280600 32013G21KT P6SM SKC=



000
FTUS41 KAKQ 272100 AAA
TAFPHF
TAF AMD
KPHF 272100Z 2721/2818 31011G18KT P6SM SCT025 OVC040
      TEMPO 2722/2724 31007KT OVC025
     FM280300 33011KT P6SM BKN040
     FM280800 34010G18KT P6SM SKC=



000
FTUS41 KAKQ 272000 AAA
TAFORF
TAF AMD
KORF 272059Z 2721/2818 31009G15KT P6SM SCT025
      TEMPO 2722/2724 31007KT BKN025
     FM280200 34010G18KT P6SM BKN040
     FM280800 35014G22KT P6SM SKC=



000
FTUS41 KAKQ 271800 AAA
TAFRIC
TAF AMD
KRIC 271832Z 2719/2818 33013G18KT P6SM OVC040
      TEMPO 2719/2722 -SN OVC025
     FM272200 33010KT P6SM BKN040
     FM280400 34008KT P6SM SCT040
     FM280800 35011KT P6SM SKC
     FM281500 34012G18KT P6SM SKC=



000
FTUS41 KAKQ 271800 AAA
TAFECG
TAF AMD
KECG 271831Z 2719/2818 33013KT P6SM OVC015
      TEMPO 2720/2724 OVC025
     FM280000 33012KT P6SM OVC025
     FM280500 32013KT P6SM BKN040
     FM281000 33013G20KT P6SM SKC=



000
FTUS41 KAKQ 271700
TAFSBY
TAF
KSBY 271740Z 2718/2818 33014G21KT P6SM OVC025
      TEMPO 2718/2722 OVC015
     FM280200 32012G19KT P6SM BKN040
     FM280600 32013G21KT P6SM SKC=



000
FTUS41 KAKQ 271700
TAFECG
TAF
KECG 271740Z 2718/2818 34013KT P6SM SCT025 OVC040
      TEMPO 2718/2722 OVC025
     FM272200 33012KT P6SM OVC025
     FM280500 32013KT P6SM BKN040
     FM281000 33013G20KT P6SM SKC=



000
FTUS41 KAKQ 271700
TAFPHF
TAF
KPHF 271740Z 2718/2818 34011G18KT P6SM SCT025 OVC040
      TEMPO 2718/2722 OVC015
     FM280300 33011KT P6SM BKN040
     FM280800 34010G18KT P6SM SKC=



000
FTUS41 KAKQ 271700
TAFORF
TAF
KORF 271740Z 2718/2818 34013G20KT P6SM OVC015
     FM272000 35010G18KT P6SM OVC025
      TEMPO 2720/2724 OVC015
     FM280200 34010G18KT P6SM BKN040
     FM280800 35014G22KT P6SM SKC=



000
FTUS41 KAKQ 271700
TAFRIC
TAF
KRIC 271740Z 2718/2818 35013G18KT P6SM OVC040
      TEMPO 2718/2722 -SN OVC025
     FM272200 33010KT P6SM BKN040
     FM280400 34008KT P6SM SCT040
     FM280800 35011KT P6SM SKC
     FM281500 34012G18KT P6SM SKC=



000
FTUS41 KAKQ 271600 AAB
TAFRIC
TAF AMD
KRIC 271653Z 2717/2812 35013G18KT P6SM OVC040
      TEMPO 2717/2720 4SM -SN BR OVC025
     FM272000 33010KT P6SM BKN040
     FM280400 34008KT P6SM SCT040=



000
FTUS41 KAKQ 271600 AAC
TAFECG
TAF AMD
KECG 271649Z 2717/2812 32012KT P6SM OVC015
      TEMPO 2717/2719 4SM -SN BR OVC025
     FM271900 33012KT P6SM OVC025
     FM280500 32013KT P6SM SCT040=



000
FTUS41 KAKQ 271600 AAA
TAFORF
TAF AMD
KORF 271628Z 2716/2812 34013G20KT P6SM OVC025
      TEMPO 2716/2719 OVC015
     FM272000 34010G18KT P6SM BKN040
     FM280500 34013G20KT P6SM SCT040=



000
FTUS41 KAKQ 271600 AAB
TAFSBY
TAF AMD
KSBY 271624Z 2716/2812 33014G21KT P6SM OVC025
      TEMPO 2716/2718 OVC015
     FM271900 32012G19KT P6SM BKN040=



000
FTUS41 KAKQ 271400 AAA
TAFPHF
TAF AMD
KPHF 271419Z 2714/2812 34011G18KT P6SM OVC025
      TEMPO 2714/2717 4SM -SN OVC015
     FM280500 33011KT P6SM SCT040=



000
FTUS41 KAKQ 271400 AAB
TAFECG
TAF AMD
KECG 271416Z 2714/2812 32014KT 4SM -SN BR OVC015
      TEMPO 2714/2718 2SM -SN BR OVC025
     FM271800 33012KT P6SM OVC025
     FM280500 32013KT P6SM SCT040=



000
FTUS41 KAKQ 271400 AAA
TAFSBY
TAF AMD
KSBY 271411Z 2714/2812 34014G21KT P6SM OVC035
      TEMPO 2714/2717 OVC025
     FM271700 32012G19KT P6SM BKN040=



000
FTUS41 KAKQ 271300 AAA
TAFECG
TAF AMD
KECG 271327Z 2713/2812 33014KT 3SM -SN BR OVC015
      TEMPO 2713/2715 1SM -SN BR OVC008
     FM271500 33013KT 5SM -SN OVC025
     FM271800 33012KT P6SM OVC025
     FM280500 32013KT P6SM SCT040=



000
FTUS41 KAKQ 271300 AAA
TAFRIC
TAF AMD
KRIC 271325Z 2713/2812 35013G20KT 4SM -SN BR SCT015 OVC040
      TEMPO 2713/2715 2SM -SN BR OVC015
     FM271800 33012KT P6SM OVC025
     FM280400 34008KT P6SM SCT040=



000
FTUS41 KAKQ 271100 RRA
TAFSBY
TAF
KSBY 271147Z 2712/2812 34014G21KT P6SM OVC015
     FM271700 31012G19KT P6SM OVC025
     FM280300 34011G18KT P6SM SCT040=



000
FTUS41 KAKQ 271100 RRA
TAFRIC
TAF
KRIC 271147Z 2712/2812 35013G20KT 4SM -SN BR OVC015
      TEMPO 2712/2714 2SM -SN BR
     FM271800 33012KT P6SM OVC025
     FM280400 34008KT P6SM SCT040=



000
FTUS41 KAKQ 271100 RRA
TAFECG
TAF
KECG 271147Z 2712/2812 34014G20KT 2SM -SN BR OVC009
     FM271400 33012G19KT 5SM -SHSN OVC015
     FM271800 33012G20KT P6SM OVC025
     FM280500 32013KT P6SM SCT040=



000
FTUS41 KAKQ 271100 RRA
TAFPHF
TAF
KPHF 271147Z 2712/2812 36011G18KT 5SM -SN BR OVC015
      TEMPO 2712/2714 2SM -SN BR
     FM271700 33010G18KT P6SM OVC025
     FM280500 33011KT P6SM SCT040=



000
FTUS41 KAKQ 271100 RRA
TAFORF
TAF
KORF 271147Z 2712/2812 36014G22KT 5SM -SN BR SCT009 OVC015
      TEMPO 2712/2715 2SM -SN BR OVC009
     FM271800 35013G20KT P6SM OVC025
     FM280500 34013G20KT P6SM SCT040=



000
FTUS41 KAKQ 270500 RRA
TAFSBY
TAF
KSBY 270548Z 2706/2806 35014G22KT 6SM -SN BR OVC012
     FM270700 34013G22KT 3SM -SN BR OVC009
     FM271800 32015G22KT P6SM OVC015
     FM272200 31012KT P6SM BKN025=



000
FTUS41 KAKQ 270500 RRA
TAFECG
TAF
KECG 270548Z 2706/2806 34016G22KT P6SM OVC012
     FM270800 34015G23KT 4SM -SN BR OVC008
     FM271400 33012G19KT P6SM OVC015
     FM271900 32012G18KT P6SM BKN030=



000
FTUS41 KAKQ 270500 RRA
TAFPHF
TAF
KPHF 270548Z 2706/2806 36013G20KT 2SM -SN BR OVC009
     FM271400 34011KT 5SM -SHSN OVC015
     FM271900 33010G18KT P6SM BKN025
     FM280200 34008KT P6SM BKN040=



000
FTUS41 KAKQ 270500 RRA
TAFORF
TAF
KORF 270548Z 2706/2806 36014G22KT 2SM -SN BR OVC007
     FM271600 35013G21KT 4SM -SHSN OVC015
     FM271900 35013G20KT P6SM BKN025
     FM280200 34012KT P6SM BKN040=



000
FTUS41 KAKQ 270500 RRA
TAFRIC
TAF
KRIC 270548Z 2706/2806 35013G20KT 3SM -SN BR OVC012
     FM270800 35010G18KT 3SM -SN BR OVC008
     FM271400 34011KT 6SM -SHSN OVC015
     FM271800 33012KT P6SM BKN025
     FM280300 34008KT P6SM SCT040=



000
FTUS41 KAKQ 270400 AAA
TAFPHF
TAF AMD
KPHF 270431Z 2705/2724 34015G21KT P6SM -RA OVC010
     FM270500 36014G22KT 2SM -SN BR OVC007
     FM271200 35012G19KT 4SM BR OVC015
     FM271600 33010G18KT P6SM BKN050=



000
FTUS41 KAKQ 270400 AAA
TAFORF
TAF AMD
KORF 270429Z 2704/2724 35012G20KT P6SM -RA OVC010
     FM270600 36018G25KT 2SM -SN BR OVC008
     FM271200 35013G21KT P6SM OVC015
     FM271600 34010G18KT P6SM BKN050=



000
FTUS41 KAKQ 270200 AAA
TAFECG
TAF AMD
KECG 270256Z 2703/2724 34016G22KT P6SM OVC008
     FM270500 32016G23KT 4SM -RA BR OVC007
     FM270900 32015G23KT 4SM -SN BR OVC015
     FM271400 33012G19KT P6SM OVC025
     FM271700 32012G17KT P6SM SCT030 BKN050=



000
FTUS41 KAKQ 262300
TAFPHF
TAF
KPHF 262338Z 2700/2724 01010G18KT 6SM BR OVC006
     FM270200 35015G21KT 4SM RA BR OVC005
     FM270500 36014G22KT 2SM -SN BR OVC007
     FM271200 35012G19KT 4SM BR OVC015
     FM271600 33010G18KT P6SM BKN050=



000
FTUS41 KAKQ 262300
TAFRIC
TAF
KRIC 262338Z 2700/2724 36010G18KT 4SM BR OVC005
     FM270300 35012G20KT 3SM -SN BR OVC005
     FM270500 35012G20KT 2SM -SN BR OVC005
     FM270900 34010KT 4SM BR OVC012
     FM271300 33010KT P6SM OVC020
     FM271800 32010G15KT P6SM SCT030=



000
FTUS41 KAKQ 262300
TAFORF
TAF
KORF 262338Z 2700/2724 36013G20KT 6SM BR OVC005
     FM270200 35018G23KT 4SM -RA BR OVC005
     FM270600 36018G25KT 2SM -SN BR OVC008
     FM271200 35013G21KT P6SM OVC015
     FM271600 34010G18KT P6SM BKN050=



000
FTUS41 KAKQ 262300
TAFSBY
TAF
KSBY 262338Z 2700/2724 01014G21KT 4SM -RA BR OVC006
     FM270300 36015G25KT 2SM -RASN BR OVC005
     FM270600 35014G22KT 1SM -SN BR OVC005
     FM271200 32013G21KT 3SM -SN BR OVC009
     FM271800 32015G22KT P6SM BKN020 OVC040=



000
FTUS41 KAKQ 262300
TAFECG
TAF
KECG 262338Z 2700/2724 34012KT P6SM BKN010 OVC050
      TEMPO 2700/2702 SCT012 OVC060
     FM270200 34012G19KT 4SM -RA BR OVC010
     FM270900 32015G23KT 4SM -SN BR OVC015
     FM271400 33012G19KT P6SM OVC025
     FM271700 32012G17KT P6SM SCT030 BKN050=



000
FTUS41 KAKQ 262200 AAB
TAFRIC
TAF AMD
KRIC 262204Z 2622/2718 36010G18KT 4SM BR OVC005
     FM270300 35012G20KT 2SM -SN BR OVC005
     FM270900 34010KT 4SM BR OVC015
     FM271300 33010KT P6SM OVC025=



000
FTUS41 KAKQ 262200 AAA
TAFECG
TAF AMD
KECG 262203Z 2622/2718 34012KT P6SM BKN010 OVC050
     FM270200 34012G19KT 4SM -RA BR OVC010
     FM271000 32015G23KT 4SM -SN BR OVC015
     FM271400 33012G19KT P6SM OVC025=



000
FTUS41 KAKQ 262000 AAA
TAFSBY
TAF AMD
KSBY 262013Z 2620/2718 01014KT P6SM BKN007 OVC015
      TEMPO 2620/2622 -RA OVC015
     FM262200 01014G21KT 4SM -RA BR OVC007
     FM270300 36015G25KT 2SM -RASN BR OVC007
     FM270600 35014G22KT 1SM -SN BR OVC005
     FM271200 32013G21KT 4SM -SN BR OVC015=



000
FTUS41 KAKQ 262000 AAA
TAFRIC
TAF AMD
KRIC 262009Z 2620/2718 36010G18KT P6SM OVC008
      TEMPO 2620/2622 BKN015 OVC050
     FM262300 36010G18KT 4SM -RA BR OVC007
     FM270300 35012G20KT 2SM -SN BR OVC005
     FM270900 34010KT 4SM BR OVC015
     FM271300 33010KT P6SM OVC025=



000
FTUS41 KAKQ 262000 AAA
TAFPHF
TAF AMD
KPHF 262005Z 2620/2718 01011KT P6SM OVC015
      TEMPO 2621/2624 OVC008
     FM270000 01010G18KT 4SM -RA BR OVC005
     FM270500 36014G22KT 2SM -SN BR OVC007
     FM271200 35012G19KT 4SM BR OVC015
     FM271600 33010G18KT P6SM BKN050=



000
FTUS41 KAKQ 262000 AAA
TAFORF
TAF AMD
KORF 262001Z 2620/2718 36013G20KT P6SM OVC015
      TEMPO 2620/2624 4SM BR OVC008
     FM270000 36013G20KT 4SM -RA BR OVC005
     FM270800 36018G25KT 2SM -SN BR OVC008
     FM271200 35013G21KT P6SM OVC015
     FM271600 34010G18KT P6SM BKN050=



000
FTUS41 KAKQ 261700 RRA
TAFORF
TAF
KORF 261746Z 2618/2718 01011G17KT P6SM BKN050
     FM270200 36013G20KT 4SM -RA BR OVC015
     FM270800 36018G25KT 2SM -SN BR OVC007
     FM271200 35013G21KT P6SM OVC015
     FM271600 34010G18KT P6SM BKN050=



000
FTUS41 KAKQ 261700 RRA
TAFPHF
TAF
KPHF 261746Z 2618/2718 03008KT P6SM SCT100 BKN250
     FM270000 01010G18KT 4SM -RA BR OVC015
     FM270500 36014G22KT 2SM -SN BR OVC007
     FM271200 35012G19KT 4SM BR OVC015
     FM271600 33010G18KT P6SM BKN050=



000
FTUS41 KAKQ 261700 RRA
TAFRIC
TAF
KRIC 261746Z 2618/2718 04009KT P6SM OVC070
      TEMPO 2618/2621 -RA BKN015 OVC050
     FM262100 02010KT 4SM -RA BR OVC015
     FM262300 36010G18KT 2SM -RA BR OVC012
     FM270300 35012G20KT 2SM -SN BR OVC007
     FM270900 34010KT 4SM BR OVC015
     FM271300 33010KT P6SM OVC025=



000
FTUS41 KAKQ 261700 RRA
TAFSBY
TAF
KSBY 261746Z 2618/2718 04014KT P6SM -RA BKN007 OVC015
     FM262100 03014G21KT 2SM -RA BR OVC007
     FM270300 36015G25KT 2SM -RASN BR OVC007
     FM270600 35014G22KT 1SM -SN BR OVC005
     FM271200 32013G21KT 4SM -SN BR OVC015=



000
FTUS41 KAKQ 261700 RRA
TAFECG
TAF
KECG 261746Z 2618/2718 35008KT P6SM SCT100 BKN250
     FM270200 34012G19KT 4SM -RA BR OVC025
     FM271000 32015G23KT 4SM -SN BR OVC015
     FM271400 33012G19KT P6SM OVC025=



000
FTUS41 KAKQ 261600 AAA
TAFRIC
TAF AMD
KRIC 261657Z 2617/2712 04009KT P6SM OVC070
      TEMPO 2618/2621 -RA BKN015 OVC050
     FM262100 02010KT 3SM -RA BR OVC015
     FM270200 36011KT 2SM -RASN BR OVC012
     FM270500 35012G20KT 1SM -SN BR OVC007=



000
FTUS41 KAKQ 261500 AAA
TAFSBY
TAF AMD
KSBY 261533Z 2616/2712 05013KT P6SM OVC015
      TEMPO 2616/2618 BKN008 OVC015
     FM261800 06012G20KT 4SM -RA BR BKN007 OVC015
     FM262100 03015G25KT 2SM -RA BR OVC007
     FM270300 36020KT 2SM -RASN BR OVC007=



000
FTUS41 KAKQ 261100 RRA
TAFSBY
TAF
KSBY 261144Z 2612/2712 04004KT P6SM SCT100 BKN250
     FM261500 05007KT P6SM VCSH BKN020 OVC050
     FM261800 06012G20KT 4SM -RA BR BKN007 OVC015
     FM262100 03015G25KT 2SM -RA BR OVC007
     FM270300 36020KT 2SM -RASN BR OVC007=



000
FTUS41 KAKQ 261100 RRA
TAFRIC
TAF
KRIC 261144Z 2612/2712 11005KT P6SM -RA OVC050
     FM261500 06007KT 4SM -RA BR OVC025
     FM262100 01010KT 3SM -RA BR OVC015
     FM270200 36011KT 2SM -RASN BR OVC012
     FM270500 35012G20KT 1SM -SN BR OVC007=



000
FTUS41 KAKQ 261100 RRA
TAFPHF
TAF
KPHF 261144Z 2612/2712 07004KT P6SM BKN100
     FM261500 07003KT P6SM VCSH BKN050
     FM262100 04006KT 4SM -RA BR OVC015
     FM270600 31012KT 2SM -SN BR OVC007=



000
FTUS41 KAKQ 261100 RRA
TAFECG
TAF
KECG 261144Z 2612/2712 VRB05KT P6SM SCT030 BKN050
     FM262200 30006KT P6SM -RA SCT020 OVC040
     FM270300 32009G15KT 4SM -RA BR SCT007 OVC020=



000
FTUS41 KAKQ 261100 RRA
TAFORF
TAF
KORF 261144Z 2612/2712 10004KT P6SM BKN100
     FM261500 04008KT P6SM BKN050
     FM262100 01010G18KT 4SM -RA BR OVC015
     FM270800 34018G25KT 2SM -SN BR OVC007=



000
FTUS41 KAKQ 260700 AAA
TAFRIC
TAF AMD
KRIC 260759Z 2608/2706 11005KT P6SM -RA OVC050
     FM261600 05007KT 4SM -RA BR OVC025
     FM262100 01010KT 3SM -RA BR OVC015
     FM270200 36011KT 2SM -RASN BR OVC012=



000
FTUS41 KAKQ 260500 RRA
TAFPHF
TAF
KPHF 260552Z 2606/2706 14004KT P6SM BKN100 OVC250
     FM261500 07003KT P6SM -RA BKN050 OVC100
     FM262100 02006KT 4SM -RA BR OVC015=



000
FTUS41 KAKQ 260500 RRA
TAFRIC
TAF
KRIC 260552Z 2606/2706 14005KT P6SM SCT100 OVC150
     FM261000 09005KT P6SM -RA OVC050
     FM261600 05007KT 4SM -RA BR OVC025
     FM262100 01010KT 3SM -RA BR OVC015
     FM270200 36011KT 2SM -RASN BR OVC012=



000
FTUS41 KAKQ 260500 RRA
TAFECG
TAF
KECG 260552Z 2606/2706 12005KT P6SM BKN250
     FM261000 06004KT P6SM BKN100 OVC150
     FM262100 34006KT P6SM -RA SCT020 OVC040
     FM270300 30009G15KT 4SM -RA BR SCT007 OVC020=



000
FTUS41 KAKQ 260500 RRA
TAFORF
TAF
KORF 260552Z 2606/2706 13004KT P6SM BKN100 OVC250
     FM261500 04008KT P6SM SCT050 OVC120
     FM262100 35010G18KT 4SM -RA BR OVC015=



000
FTUS41 KAKQ 260500 RRA
TAFSBY
TAF
KSBY 260552Z 2606/2706 15004KT P6SM SCT100 BKN250
     FM261500 06007KT P6SM VCSH BKN020 OVC050
     FM261800 05012G20KT 4SM -RA BR OVC015
     FM262100 03015G25KT 2SM -RA BR OVC008
     FM270300 03020KT 2SM -RASN BR OVC007=



000
FTUS41 KAKQ 252300
TAFSBY
TAF
KSBY 252330Z 2600/2624 15004KT P6SM SCT100 BKN250
     FM261500 06005KT P6SM -RA OVC050
     FM261800 05012G20KT 4SM -RA BR OVC015
     FM262100 03015G23KT 2SM -RA BR OVC008=



000
FTUS41 KAKQ 252300
TAFRIC
TAF
KRIC 252330Z 2600/2624 15005KT P6SM SCT100 BKN250
     FM261000 09005KT P6SM -RA OVC050
     FM261600 04007KT 4SM -RA BR OVC025
     FM262100 36010KT 2SM -RA BR OVC015=



000
FTUS41 KAKQ 252300
TAFPHF
TAF
KPHF 252330Z 2600/2624 16004KT P6SM SCT250
     FM260600 14004KT P6SM BKN120 OVC250
     FM261500 07003KT P6SM -RA BKN050 OVC100
     FM262100 02006KT 4SM -RA BR OVC015=



000
FTUS41 KAKQ 252300
TAFORF
TAF
KORF 252330Z 2600/2624 19005KT P6SM SCT250
     FM260600 13004KT P6SM BKN120 OVC250
     FM261500 04008KT P6SM SCT050 OVC120
     FM262100 35010G18KT 4SM -RA BR OVC015=



000
FTUS41 KAKQ 252300
TAFECG
TAF
KECG 252330Z 2600/2624 12005KT P6SM SCT250
     FM261000 06004KT P6SM SCT120 BKN250
     FM262000 34006KT P6SM -RA SCT030 OVC050=



000
FTUS41 KAKQ 251700 RRA
TAFRIC
TAF
KRIC 251744Z 2518/2618 22008KT P6SM SCT250
     FM252300 18005KT P6SM BKN250
     FM260300 14005KT P6SM SCT090 OVC150
     FM261000 11005KT 5SM -RA BKN035 OVC070=



000
FTUS41 KAKQ 251700 RRA
TAFORF
TAF
KORF 251744Z 2518/2618 19005KT P6SM SCT250
     FM260500 VRB04KT P6SM VCSH BKN150 OVC200
     FM261200 10004KT 6SM -RA BKN030 OVC070=



000
FTUS41 KAKQ 251700 RRA
TAFPHF
TAF
KPHF 251744Z 2518/2618 21005KT P6SM SCT250
     FM260500 14004KT P6SM VCSH BKN150 OVC200
     FM261200 10005KT 6SM -RA BKN030 OVC070=



000
FTUS41 KAKQ 251700 RRA
TAFSBY
TAF
KSBY 251744Z 2518/2618 25012KT P6SM SCT050 SCT250
     FM252300 VRB04KT P6SM BKN070 BKN200
     FM261000 07008KT 5SM -RA BKN015 OVC040=



000
FTUS41 KAKQ 251700 RRA
TAFECG
TAF
KECG 251744Z 2518/2618 VRB05KT P6SM SKC
     FM260300 VRB04KT P6SM SCT150
     FM260900 10004KT P6SM VCSH SCT030 BKN100=



    US Dept of Commerce
    National Oceanic and Atmospheric Administration
    National Weather Service
    1325 East West Highway
    Silver Spring, MD 20910
    Page Author: NWS Internet Services Team
Disclaimer
Information Quality
Credits
Glossary
Privacy Policy
Freedom of Information Act (FOIA)
About Us
Career Opportunities